• Join FlightAware (Why Join?)
  • Login
  • US Flag 
01:04PM EDT


 

Airport Tracker/Info


-or-


 

Live Flight TrackerFlight Track Log ✈ N601DM ✈ 03-Feb-2014 ✈ T82 - KADS

Flight Track Log - Related Links

Times and Time Zones

All times are in EST time to prevent confusion due to time zone crossing. See the N601DM flight status page for this flight to view local times or setup timezone preferences in your user account.

Time Position Orientation Groundspeed Altitude Reporting Facility
EST Latitude Longitude Course Direction KTS MPH feet Rate Location/Type
10:29AM 30.5720 -98.8204 16° North  Level FlightAware Approximate
10:30AM 30.6289 -98.8102 North  Level FlightAware Approximate
10:30AM 30.2031 -98.8581 79° East 225 259 4,400  Level Houston Center
10:31AM 30.6861 -98.8020 North  Level FlightAware Approximate
10:31AM 30.2419 -98.8478 13° North 149 171 5,700  Level Houston Center
10:32AM 30.7420 -98.7860 16° North  Level FlightAware Approximate
10:32AM 30.2817 -98.8258 26° Northeast 148 170 6,800  Level Houston Center
10:33AM 30.7955 -98.7712 41° Northeast  Level FlightAware Approximate
10:33AM 30.3242 -98.7950 32° Northeast 169 194 8,200  Level Houston Center
10:34AM 30.8420 -98.7317 36° Northeast  Level FlightAware Approximate
10:34AM 30.3633 -98.7686 30° Northeast 163 188 9,300  Level Houston Center
10:35AM 30.8529 -98.6660 79° East  Level FlightAware Approximate
10:35AM 30.4019 -98.7381 34° Northeast 165 190 10,400  Level Houston Center
10:36AM 30.4414 -98.7103 31° Northeast 166 191 11,400 960 Climbing Houston Center
10:37AM 30.4867 -98.6875 23° Northeast 171 197 12,400 960 Climbing Houston Center
10:38AM 30.5300 -98.6583 30° Northeast 178 205 13,500 960 Climbing Houston Center
10:39AM 30.5733 -98.6317 28° Northeast 175 201 14,500 720 Climbing Houston Center
10:40AM 30.6225 -98.5972 31° Northeast 176 203 15,000 180 Climbing Houston Center
10:41AM 30.6769 -98.5594 31° Northeast 217 250 14,900 -60 Descending Houston Center
10:42AM 30.7331 -98.5161 34° Northeast 236 272 14,900  Level Houston Center
10:43AM 30.7900 -98.4714 34° Northeast 243 280 14,900  Level Houston Center
10:44AM 30.8492 -98.4356 27° Northeast 237 273 14,900  Level Houston Center
10:45AM 30.9092 -98.4014 26° Northeast 237 273 14,900  Level Houston Center
10:46AM 30.9675 -98.3622 30° Northeast 238 274 14,900  Level Houston Center
10:47AM 31.0336 -98.3156 31° Northeast 236 272 14,900  Level Houston Center
10:48AM 31.0925 -98.2800 27° Northeast 236 272 14,900  Level Houston Center
10:49AM 31.1511 -98.2406 30° Northeast 238 274 14,900  Level Houston Center
10:50AM 31.2075 -98.1997 32° Northeast 235 270 14,900  Level Houston Center
10:51AM 31.2758 -98.1572 28° Northeast 239 275 14,900  Level Fort Worth Center
10:52AM 31.3344 -98.1189 29° Northeast 237 273 14,900  Level Fort Worth Center
10:53AM 31.3925 -98.0769 32° Northeast 240 276 15,000  Climbing Fort Worth Center
10:54AM 31.4525 -98.0367 30° Northeast 243 280 15,000  Level Fort Worth Center
10:56AM 31.5131 -97.9986 28° Northeast 245 282 15,000 -60 Level Fort Worth Center
10:57AM 31.5722 -97.9594 29° Northeast 241 277 14,900  Descending Fort Worth Center
10:58AM 31.6317 -97.9175 31° Northeast 245 282 15,000 -180 Climbing Fort Worth Center
10:59AM 31.7022 -97.8700 30° Northeast 246 283 14,600 -660 Descending Fort Worth Center
11:00AM 31.7686 -97.8244 30° Northeast 266 306 13,700 -1,020 Descending Fort Worth Center
11:01AM 31.8364 -97.7819 28° Northeast 271 312 12,500 -1,260 Descending Fort Worth Center
11:02AM 31.9033 -97.7356 30° Northeast 275 316 11,100 -1,320 Descending Fort Worth Center
11:03AM 31.9714 -97.6878 31° Northeast 265 305 9,800 -1,200 Descending Fort Worth Center
11:04AM 32.0397 -97.6481 26° Northeast 254 292 8,700 -1,080 Descending Fort Worth Center
11:05AM 32.0983 -97.6081 30° Northeast 243 280 7,600 -1,080 Descending Fort Worth Center
11:06AM 32.1561 -97.5661 32° Northeast 245 282 6,500 -1,140 Descending Fort Worth Center
11:07AM 32.2181 -97.5264 28° Northeast 238 274 5,300 -780 Descending Fort Worth Center
11:08AM 32.2717 -97.4908 29° Northeast 222 255 5,000 -180 Descending Fort Worth Center
11:09AM 32.3206 -97.4464 38° Northeast 207 238 5,000  Level Fort Worth Center
11:10AM 32.3556 -97.3944 51° Northeast 204 235 5,000  Level Fort Worth Center
11:11AM 32.3656 -97.3250 80° East 201 231 5,000 -120 Level Fort Worth Center
11:12AM 32.3783 -97.2597 77° East 204 235 4,800 -480 Descending Fort Worth Center
11:13AM 32.3911 -97.1869 78° East 211 243 4,100 -420 Descending Fort Worth Center
11:14AM 32.4025 -97.1208 78° East 199 229 4,000 -60 Descending Fort Worth Center
11:15AM 32.4142 -97.0631 77° East 184 212 4,000  Level Fort Worth Center
11:16AM 32.4233 -97.0053 79° East 180 207 4,000  Level Fort Worth Center
11:17AM 32.4586 -96.9558 50° Northeast 183 211 4,000  Level Fort Worth Center
11:18AM 32.4906 -96.9081 52° Northeast 184 212 4,000  Level Fort Worth Center
11:19AM 32.5350 -96.8775 30° Northeast 197 227 4,000  Level Fort Worth Center
11:20AM 32.5861 -96.8572 18° North 190 219 4,000  Level Fort Worth Center
11:21AM 32.6350 -96.8333 22° Northeast 178 205 4,000  Level Fort Worth Center
11:22AM 32.6806 -96.8133 20° North 174 200 4,000  Level Fort Worth Center
11:23AM 32.7311 -96.7981 14° North 175 201 4,000  Level Fort Worth Center
11:24AM 32.7797 -96.7883 10° North 176 203 4,000 -120 Level Fort Worth Center
11:25AM 32.8275 -96.7794 North 175 201 3,800 -540 Descending Fort Worth Center
11:27AM 32.8747 -96.7961 343° North 174 200 2,900 -960 Descending Fort Worth Center
11:28AM 32.9183 -96.8128 342° North 164 189 1,900 -1,020 Descending Fort Worth Center
11:29AM 32.9511 -96.8283 338° Northwest 119 137 900 -600 Descending Fort Worth Center
11:30AM 32.9725 -96.8378 340° North 108 124 700 -240 Descending Fort Worth Center